createdAt,value
2018-05-07T00:01:10.051Z,56.30
2018-05-07T00:03:36.367Z,56.60
2018-05-07T00:06:03.438Z,56.90
2018-05-07T00:08:29.811Z,56.90
2018-05-07T00:10:56.139Z,57.70
2018-05-07T00:13:23.077Z,57.40
2018-05-07T00:15:49.392Z,57.40
2018-05-07T00:18:15.722Z,57.60
2018-05-07T00:20:42.102Z,58.30
2018-05-07T00:23:08.733Z,57.90
2018-05-07T00:25:35.057Z,57.60
2018-05-07T00:28:01.686Z,58.50
2018-05-07T00:30:28.047Z,58.60
2018-05-07T00:32:54.682Z,59.30
2018-05-07T00:35:21.025Z,58.40
2018-05-07T00:37:47.607Z,58.70
2018-05-07T00:40:13.946Z,58.20
2018-05-07T00:42:40.246Z,59.00
2018-05-07T00:45:06.590Z,58.50
2018-05-07T00:47:32.909Z,59.10
2018-05-07T00:49:59.289Z,59.90
2018-05-07T00:52:25.627Z,60.10
2018-05-07T00:55:16.875Z,60.60
2018-05-07T00:57:43.417Z,61.00
2018-05-07T01:00:09.749Z,61.00
2018-05-07T01:02:36.075Z,61.30
2018-05-07T01:05:03.314Z,61.20
2018-05-07T01:07:29.864Z,61.20
2018-05-07T01:09:56.211Z,61.80
2018-05-07T01:12:22.579Z,62.40
2018-05-07T01:14:48.969Z,62.10
2018-05-07T01:17:15.267Z,62.10
2018-05-07T01:19:41.630Z,62.00
2018-05-07T01:22:07.971Z,61.80
2018-05-07T01:24:35.043Z,62.40
2018-05-07T01:27:01.454Z,62.40
2018-05-07T01:29:28.519Z,62.20
2018-05-07T01:31:54.914Z,62.20
2018-05-07T01:34:21.454Z,62.90
2018-05-07T01:36:47.828Z,62.20
2018-05-07T01:39:15.411Z,63.00
2018-05-07T01:41:41.762Z,63.60
2018-05-07T01:44:08.079Z,63.80
2018-05-07T01:46:34.598Z,64.10
2018-05-07T01:49:00.898Z,64.10
2018-05-07T01:51:27.247Z,64.60
2018-05-07T01:53:53.554Z,64.50
2018-05-07T01:56:19.882Z,64.90
2018-05-07T01:58:46.255Z,64.50
2018-05-07T02:01:13.577Z,64.60
2018-05-07T02:03:39.978Z,64.50
2018-05-07T02:06:06.326Z,65.20
2018-05-07T02:08:32.639Z,65.30
2018-05-07T02:11:00.247Z,66.40
2018-05-07T02:13:27.859Z,66.30
2018-05-07T02:15:54.167Z,66.30
2018-05-07T02:18:20.903Z,66.40
2018-05-07T02:20:47.222Z,66.40
2018-05-07T02:23:14.138Z,67.30
2018-05-07T02:25:40.451Z,67.00
2018-05-07T02:28:07.367Z,67.10
2018-05-07T02:30:33.659Z,67.60
2018-05-07T02:33:00.537Z,67.60
2018-05-07T02:35:27.634Z,68.00
2018-05-07T02:37:53.986Z,68.00
2018-05-07T02:40:20.331Z,68.20
2018-05-07T02:42:46.663Z,68.30
2018-05-07T02:45:13.033Z,68.70
2018-05-07T02:47:39.779Z,68.80
2018-05-07T02:50:06.114Z,69.40
2018-05-07T02:52:33.175Z,69.40
2018-05-07T02:54:59.502Z,69.60
2018-05-07T02:57:26.394Z,69.40
2018-05-07T02:59:52.714Z,69.80
2018-05-07T03:02:19.282Z,70.00
2018-05-07T03:04:45.616Z,70.60
2018-05-07T03:07:12.210Z,70.00
2018-05-07T03:09:38.574Z,70.00
2018-05-07T03:12:06.258Z,70.50
2018-05-07T03:14:32.626Z,70.80
2018-05-07T03:16:59.293Z,70.60
2018-05-07T03:19:25.621Z,70.70
2018-05-07T03:21:51.933Z,71.60
2018-05-07T03:24:18.314Z,71.20
2018-05-07T03:26:44.705Z,71.20
2018-05-07T03:29:11.066Z,70.20
2018-05-07T03:31:37.410Z,70.20
2018-05-07T03:34:03.982Z,70.10
2018-05-07T03:36:30.322Z,70.10
2018-05-07T03:38:57.302Z,70.00
2018-05-07T03:41:23.580Z,69.60
2018-05-07T03:43:50.127Z,69.40
2018-05-07T03:46:16.486Z,69.40
2018-05-07T03:48:43.096Z,69.30
2018-05-07T03:51:09.654Z,69.40
2018-05-07T03:53:36.714Z,69.60
2018-05-07T03:56:03.049Z,69.50
2018-05-07T03:58:30.119Z,69.60
2018-05-07T04:00:56.419Z,69.50
2018-05-07T04:03:23.235Z,69.60
2018-05-07T04:05:50.786Z,69.60
2018-05-07T04:08:18.271Z,69.70
2018-05-07T04:10:45.070Z,69.30
2018-05-07T04:13:11.452Z,69.40
2018-05-07T04:15:38.352Z,69.40
2018-05-07T04:18:17.012Z,69.30
2018-05-07T04:20:55.666Z,69.80
2018-05-07T04:23:35.789Z,70.20
2018-05-07T04:26:02.113Z,69.80
2018-05-07T04:28:28.767Z,69.50
2018-05-07T04:30:55.103Z,69.60
2018-05-07T04:33:21.398Z,69.70
2018-05-07T04:35:47.722Z,69.70
2018-05-07T04:38:14.059Z,69.70
2018-05-07T04:40:41.410Z,69.20
2018-05-07T04:43:07.755Z,69.60
2018-05-07T04:45:34.066Z,70.10
2018-05-07T04:48:00.375Z,70.20
2018-05-07T04:50:26.947Z,70.30
2018-05-07T04:52:53.355Z,69.70
2018-05-07T04:55:19.942Z,70.10
2018-05-07T04:57:46.354Z,68.60
2018-05-07T05:00:13.378Z,69.00
2018-05-07T05:02:39.687Z,68.30
2018-05-07T05:05:06.188Z,68.30
2018-05-07T05:07:32.520Z,67.70
2018-05-07T05:09:58.825Z,67.60
2018-05-07T05:12:25.166Z,68.60
2018-05-07T05:14:51.468Z,69.00
2018-05-07T05:17:18.279Z,68.80
2018-05-07T05:19:44.586Z,68.40
2018-05-07T05:22:11.600Z,68.00
2018-05-07T05:24:37.918Z,67.90
2018-05-07T05:27:04.556Z,68.00
2018-05-07T05:29:30.913Z,68.40
2018-05-07T05:31:57.795Z,68.50
2018-05-07T05:34:24.114Z,66.90
2018-05-07T05:36:50.990Z,66.70
2018-05-07T05:39:17.282Z,65.20
2018-05-07T05:41:43.815Z,65.00
2018-05-07T05:44:10.118Z,64.20
2018-05-07T05:46:37.133Z,64.40
2018-05-07T05:49:03.462Z,65.70
2018-05-07T05:51:30.398Z,65.60
2018-05-07T05:53:56.713Z,64.80
2018-05-07T05:56:23.468Z,63.70
2018-05-07T05:58:49.725Z,63.10
2018-05-07T06:01:16.031Z,63.00
2018-05-07T06:03:42.436Z,62.90
2018-05-07T06:06:08.706Z,62.00
2018-05-07T06:08:35.977Z,61.80
2018-05-07T06:11:02.325Z,61.60
2018-05-07T06:13:29.634Z,62.00
2018-05-07T06:15:55.945Z,61.80
2018-05-07T06:18:22.261Z,61.80
2018-05-07T06:20:48.529Z,62.10
2018-05-07T06:23:15.480Z,62.80
2018-05-07T06:25:41.830Z,63.50
2018-05-07T06:28:08.491Z,63.20
2018-05-07T06:30:34.810Z,63.00
2018-05-07T06:33:01.967Z,62.70
2018-05-07T06:35:28.286Z,61.20
2018-05-07T06:37:55.108Z,59.00
2018-05-07T06:40:21.423Z,58.60
2018-05-07T06:42:47.816Z,59.00
2018-05-07T06:45:14.806Z,58.60
2018-05-07T06:47:41.159Z,58.50
2018-05-07T06:50:07.919Z,59.20
2018-05-07T06:52:34.257Z,58.00
2018-05-07T06:55:01.010Z,58.00
2018-05-07T06:57:27.322Z,57.50
2018-05-07T06:59:55.158Z,58.10
2018-05-07T07:02:22.442Z,57.30
2018-05-07T07:04:48.748Z,57.20
2018-05-07T07:07:15.894Z,57.30
2018-05-07T07:09:42.954Z,57.00
2018-05-07T07:12:09.272Z,57.00
2018-05-07T07:14:36.640Z,55.90
2018-05-07T07:17:03.007Z,55.90
2018-05-07T07:19:29.356Z,55.70
2018-05-07T07:21:55.770Z,55.20
2018-05-07T07:24:22.096Z,55.90
2018-05-07T07:26:48.397Z,55.30
2018-05-07T07:29:14.725Z,54.50
2018-05-07T07:31:41.043Z,55.50
2018-05-07T07:34:07.423Z,55.30
2018-05-07T07:36:33.942Z,55.30
2018-05-07T07:39:00.965Z,54.60
2018-05-07T07:41:27.327Z,54.50
2018-05-07T07:43:53.666Z,53.20
2018-05-07T07:46:20.296Z,54.70
2018-05-07T07:48:46.586Z,54.40
2018-05-07T07:51:12.934Z,54.40
2018-05-07T07:53:39.894Z,53.50
2018-05-07T07:56:06.187Z,54.30
2018-05-07T07:58:32.511Z,53.80
2018-05-07T08:00:58.844Z,53.70
2018-05-07T08:03:25.162Z,52.90
2018-05-07T08:05:51.493Z,52.50
2018-05-07T08:08:18.239Z,51.60
2018-05-07T08:10:44.564Z,51.70
2018-05-07T08:13:11.163Z,52.60
2018-05-07T08:15:37.766Z,51.60
2018-05-07T08:18:04.673Z,51.70
2018-05-07T08:20:31.032Z,51.60
2018-05-07T08:22:57.438Z,51.90
2018-05-07T08:25:24.502Z,51.60
2018-05-07T08:27:50.819Z,51.60
2018-05-07T08:30:17.152Z,50.60
2018-05-07T08:32:43.928Z,50.50
2018-05-07T08:35:10.288Z,50.90
2018-05-07T08:37:36.615Z,49.90
2018-05-07T08:40:02.954Z,49.70
2018-05-07T08:42:29.310Z,50.30
2018-05-07T08:44:55.631Z,49.60
2018-05-07T08:47:22.690Z,47.90
2018-05-07T08:49:48.994Z,47.80
2018-05-07T08:52:15.314Z,48.50
2018-05-07T08:54:41.882Z,47.70
2018-05-07T08:57:08.194Z,48.40
2018-05-07T08:59:34.479Z,48.00
2018-05-07T09:02:01.125Z,47.40
2018-05-07T09:04:28.151Z,46.30
2018-05-07T09:06:54.561Z,46.20
2018-05-07T09:09:20.834Z,46.50
2018-05-07T09:11:47.490Z,47.20
2018-05-07T09:14:14.538Z,46.30
2018-05-07T09:16:41.107Z,46.30
2018-05-07T09:19:08.015Z,46.50
2018-05-07T09:21:34.379Z,46.20
2018-05-07T09:24:01.199Z,45.90
2018-05-07T09:26:27.514Z,45.80
2018-05-07T09:28:54.145Z,45.80
2018-05-07T09:31:20.441Z,45.40
2018-05-07T09:33:46.812Z,45.20
2018-05-07T09:36:14.024Z,44.70
2018-05-07T09:38:40.871Z,44.30
2018-05-07T09:41:07.153Z,44.20
2018-05-07T09:43:33.466Z,43.00
2018-05-07T09:46:00.488Z,43.80
2018-05-07T09:48:26.955Z,44.40
2018-05-07T09:50:53.254Z,44.20
2018-05-07T09:53:19.711Z,42.30
2018-05-07T09:55:46.551Z,41.10
2018-05-07T09:58:13.662Z,41.00
2018-05-07T10:00:39.998Z,41.60
2018-05-07T10:03:06.371Z,43.00
2018-05-07T10:05:33.178Z,42.30
2018-05-07T10:07:59.559Z,41.60
2018-05-07T10:10:26.868Z,42.10
2018-05-07T10:12:56.578Z,41.90
2018-05-07T10:15:23.149Z,41.80
2018-05-07T10:17:49.526Z,39.90
2018-05-07T10:20:16.860Z,42.40
2018-05-07T10:22:43.684Z,41.20
2018-05-07T10:25:10.599Z,40.60
2018-05-07T10:27:37.773Z,39.30
2018-05-07T10:30:04.690Z,41.10
2018-05-07T10:32:31.959Z,39.90
2018-05-07T10:34:58.518Z,41.20
2018-05-07T10:37:24.806Z,40.40
2018-05-07T10:39:52.298Z,39.60
2018-05-07T10:42:19.549Z,38.60
2018-05-07T10:44:46.147Z,37.10
2018-05-07T10:47:13.226Z,39.40
2018-05-07T10:49:40.587Z,39.40
2018-05-07T10:52:07.440Z,39.30
2018-05-07T10:54:33.835Z,38.30
2018-05-07T10:57:00.522Z,38.60
2018-05-07T10:59:26.840Z,39.90
2018-05-07T11:01:53.160Z,38.30
2018-05-07T11:04:19.495Z,39.50
2018-05-07T11:06:45.795Z,39.30
2018-05-07T11:09:12.346Z,39.20
2018-05-07T11:11:38.647Z,38.50
2018-05-07T11:14:05.570Z,38.10
2018-05-07T11:16:31.913Z,38.60
2018-05-07T11:18:58.731Z,37.80
2018-05-07T11:21:24.999Z,37.70
2018-05-07T11:23:55.269Z,38.30
2018-05-07T11:26:21.574Z,37.10
2018-05-07T11:28:47.896Z,37.10
2018-05-07T11:31:15.001Z,36.60
2018-05-07T11:33:41.301Z,36.70
2018-05-07T11:36:09.660Z,36.30
2018-05-07T11:38:36.014Z,36.00
2018-05-07T11:41:03.127Z,36.80
2018-05-07T11:43:29.876Z,35.90
2018-05-07T11:45:56.954Z,36.40
2018-05-07T11:48:24.015Z,36.30
2018-05-07T11:50:50.318Z,36.30
2018-05-07T11:53:16.646Z,33.10
2018-05-07T11:55:42.949Z,35.20
2018-05-07T11:58:09.278Z,35.20
2018-05-07T12:00:35.622Z,33.50
2018-05-07T12:03:01.950Z,33.40
2018-05-07T12:05:28.783Z,33.90
2018-05-07T12:07:55.107Z,34.70
2018-05-07T12:10:21.437Z,35.30
2018-05-07T12:12:48.363Z,33.30
2018-05-07T12:15:14.691Z,33.00
2018-05-07T12:17:41.746Z,33.30
2018-05-07T12:20:08.079Z,33.20
2018-05-07T12:22:34.384Z,33.00
2018-05-07T12:25:00.790Z,32.30
2018-05-07T12:27:27.159Z,31.90
2018-05-07T12:29:54.239Z,33.00
2018-05-07T12:32:20.539Z,32.90
2018-05-07T12:34:46.999Z,32.00
2018-05-07T12:37:13.294Z,32.30
2018-05-07T12:39:39.786Z,32.90
2018-05-07T12:42:06.098Z,29.90
2018-05-07T12:44:33.358Z,30.60
2018-05-07T12:46:59.869Z,30.50
2018-05-07T12:49:26.946Z,30.00
2018-05-07T12:51:53.254Z,30.00
2018-05-07T12:54:19.766Z,29.80
2018-05-07T12:56:46.079Z,28.70
2018-05-07T12:59:12.659Z,28.50
2018-05-07T13:01:38.987Z,29.90
2018-05-07T13:04:05.332Z,30.00
2018-05-07T13:06:32.090Z,29.10
2018-05-07T13:08:59.522Z,29.00
2018-05-07T13:11:26.635Z,28.60
2018-05-07T13:13:53.342Z,28.50
2018-05-07T13:16:20.422Z,28.70
2018-05-07T13:18:47.012Z,28.60
2018-05-07T13:21:14.206Z,28.00
2018-05-07T13:23:40.506Z,28.30
2018-05-07T13:26:07.572Z,27.30
2018-05-07T13:28:33.939Z,27.20
2018-05-07T13:31:00.434Z,27.30
2018-05-07T13:33:26.798Z,27.30
2018-05-07T13:35:53.151Z,26.50
2018-05-07T13:38:19.742Z,27.30
2018-05-07T13:40:46.080Z,27.20
2018-05-07T13:43:12.391Z,26.50
2018-05-07T13:45:38.766Z,25.40
2018-05-07T13:48:05.077Z,23.80
2018-05-07T13:50:31.679Z,22.80
2018-05-07T13:52:57.994Z,22.40
2018-05-07T13:55:24.592Z,20.70
2018-05-07T13:57:50.918Z,20.30
2018-05-07T14:00:17.269Z,19.50
2018-05-07T14:02:43.644Z,19.00
2018-05-07T14:05:10.228Z,18.00
2018-05-07T14:07:36.867Z,18.70
2018-05-07T14:10:03.251Z,17.80
2018-05-07T14:12:29.598Z,17.70
2018-05-07T14:14:56.186Z,18.20
2018-05-07T14:17:27.196Z,17.00
2018-05-07T14:19:54.088Z,17.00
2018-05-07T14:22:23.701Z,17.50
2018-05-07T14:24:51.456Z,17.00
2018-05-07T14:27:18.019Z,16.00
2018-05-07T14:29:48.075Z,16.80
2018-05-07T14:32:14.872Z,17.50
2018-05-07T14:34:41.179Z,17.50
2018-05-07T14:37:08.397Z,18.00
2018-05-07T14:39:34.704Z,17.10
2018-05-07T14:42:01.376Z,17.10
2018-05-07T14:44:28.416Z,16.30
2018-05-07T14:46:54.930Z,16.20
2018-05-07T14:49:21.226Z,16.20
2018-05-07T14:51:47.563Z,16.30
2018-05-07T14:54:13.866Z,15.90
2018-05-07T14:56:41.218Z,15.90
2018-05-07T14:59:07.511Z,15.70
2018-05-07T15:01:33.827Z,15.40
2018-05-07T15:04:00.166Z,15.20
2018-05-07T15:06:26.570Z,15.00
2018-05-07T15:08:53.047Z,14.70
2018-05-07T15:11:19.431Z,14.60
2018-05-07T15:13:46.739Z,14.80
2018-05-07T15:16:13.070Z,15.90
2018-05-07T15:18:39.642Z,15.90
2018-05-07T15:21:06.054Z,15.50
2018-05-07T15:23:33.029Z,15.30
2018-05-07T15:25:59.351Z,15.90
2018-05-07T15:28:25.716Z,16.30
2018-05-07T15:30:54.219Z,16.30
2018-05-07T15:33:21.285Z,17.00
2018-05-07T15:35:47.600Z,15.70
2018-05-07T15:38:13.943Z,15.90
2018-05-07T15:40:40.240Z,15.90
2018-05-07T15:43:07.583Z,16.20
2018-05-07T15:45:34.650Z,16.10
2018-05-07T15:48:01.216Z,16.00
2018-05-07T15:50:27.550Z,16.50
2018-05-07T15:52:53.858Z,16.80
2018-05-07T15:55:20.231Z,16.20
2018-05-07T15:57:46.601Z,16.40
2018-05-07T16:00:12.934Z,16.70
2018-05-07T16:02:40.232Z,16.20
2018-05-07T16:05:06.562Z,16.10
2018-05-07T16:07:32.882Z,16.30
2018-05-07T16:09:59.426Z,15.90
2018-05-07T16:12:25.744Z,16.20
2018-05-07T16:14:52.801Z,16.90
2018-05-07T16:17:19.149Z,16.90
2018-05-07T16:19:45.636Z,16.90
2018-05-07T16:22:12.879Z,17.00
2018-05-07T16:24:39.111Z,16.90
2018-05-07T16:27:05.718Z,17.50
2018-05-07T16:29:32.052Z,17.20
2018-05-07T16:31:58.414Z,17.20
2018-05-07T16:34:24.722Z,17.10
2018-05-07T16:36:51.254Z,16.80
2018-05-07T16:39:17.744Z,17.30
2018-05-07T16:41:44.087Z,17.20
2018-05-07T16:44:10.439Z,17.40
2018-05-07T16:46:36.738Z,18.30
2018-05-07T16:49:03.865Z,18.30
2018-05-07T16:51:30.143Z,18.30
2018-05-07T16:53:56.833Z,17.70
2018-05-07T16:56:23.252Z,18.50
2018-05-07T16:58:49.587Z,18.00
2018-05-07T17:01:16.150Z,18.20
2018-05-07T17:03:42.530Z,18.30
2018-05-07T17:06:08.839Z,18.50
2018-05-07T17:08:35.232Z,18.30
2018-05-07T17:11:01.549Z,18.20
2018-05-07T17:13:28.336Z,18.90
2018-05-07T17:15:54.639Z,19.10
2018-05-07T17:18:20.982Z,19.60
2018-05-07T17:20:47.288Z,21.10
2018-05-07T17:23:13.613Z,22.40
2018-05-07T17:25:39.963Z,24.10
2018-05-07T17:28:06.491Z,25.50
2018-05-07T17:30:32.810Z,25.50
2018-05-07T17:32:59.815Z,26.00
2018-05-07T17:35:26.127Z,28.00
2018-05-07T17:37:52.935Z,27.70
2018-05-07T17:40:19.248Z,28.10
2018-05-07T17:42:46.354Z,29.00
2018-05-07T17:45:24.812Z,28.90
2018-05-07T17:48:03.527Z,29.10
2018-05-07T17:50:30.187Z,29.90
2018-05-07T17:52:56.531Z,30.60
2018-05-07T17:55:23.584Z,29.90
2018-05-07T17:57:50.878Z,29.80
2018-05-07T18:00:17.215Z,29.10
2018-05-07T18:02:43.533Z,29.30
2018-05-07T18:05:09.822Z,29.50
2018-05-07T18:07:36.140Z,29.90
2018-05-07T18:10:03.234Z,31.90
2018-05-07T18:12:29.543Z,31.80
2018-05-07T18:14:56.362Z,33.50
2018-05-07T18:17:22.682Z,33.80
2018-05-07T18:19:49.226Z,33.50
2018-05-07T18:22:15.546Z,34.40
2018-05-07T18:24:42.231Z,35.00
2018-05-07T18:27:08.587Z,35.40
2018-05-07T18:29:34.901Z,37.00
2018-05-07T18:32:01.236Z,37.50
2018-05-07T18:34:27.806Z,37.40
2018-05-07T18:36:54.171Z,39.60
2018-05-07T18:39:20.513Z,38.30
2018-05-07T18:41:48.407Z,39.00
2018-05-07T18:44:14.978Z,38.40
2018-05-07T18:46:41.343Z,39.60
2018-05-07T18:49:07.614Z,39.40
2018-05-07T18:51:33.906Z,38.10
2018-05-07T18:54:00.280Z,41.30
2018-05-07T18:56:26.774Z,40.30
2018-05-07T18:58:53.130Z,39.40
2018-05-07T19:01:20.603Z,41.70
2018-05-07T19:03:47.031Z,41.70
2018-05-07T19:06:14.717Z,42.40
2018-05-07T19:08:41.210Z,42.30
2018-05-07T19:11:07.786Z,42.90
2018-05-07T19:13:34.426Z,44.70
2018-05-07T19:16:00.922Z,45.80
2018-05-07T19:18:27.462Z,45.00
2018-05-07T19:20:53.786Z,44.70
2018-05-07T19:23:20.113Z,45.60
2018-05-07T19:25:46.479Z,47.70
2018-05-07T19:28:13.050Z,47.20
2018-05-07T19:30:39.361Z,47.60
2018-05-07T19:33:05.646Z,47.50
2018-05-07T19:35:31.978Z,47.60
2018-05-07T19:37:58.344Z,47.80
2018-05-07T19:40:24.653Z,48.60
2018-05-07T19:42:51.160Z,48.50
2018-05-07T19:45:17.960Z,48.20
2018-05-07T19:47:45.127Z,48.70
2018-05-07T19:50:16.133Z,50.20
2018-05-07T19:52:43.282Z,49.60
2018-05-07T19:55:09.605Z,49.60
2018-05-07T19:57:35.887Z,49.30
2018-05-07T20:00:02.549Z,49.40
2018-05-07T20:02:28.901Z,50.30
2018-05-07T20:04:55.248Z,50.00
2018-05-07T20:07:21.544Z,50.30
2018-05-07T20:09:48.102Z,51.10
2018-05-07T20:12:14.424Z,50.50
2018-05-07T20:14:40.730Z,51.30
2018-05-07T20:17:07.250Z,52.40
2018-05-07T20:19:34.507Z,52.50
2018-05-07T20:22:00.822Z,52.50
2018-05-07T20:24:27.335Z,52.40
2018-05-07T20:26:53.642Z,52.80
2018-05-07T20:29:19.935Z,52.70
2018-05-07T20:31:47.019Z,54.40
2018-05-07T20:34:13.311Z,54.40
2018-05-07T20:36:40.398Z,55.40
2018-05-07T20:39:06.716Z,55.30
2018-05-07T20:41:33.046Z,55.30
2018-05-07T20:44:00.085Z,56.40
2018-05-07T20:46:27.168Z,55.80
2018-05-07T20:48:53.830Z,55.80
2018-05-07T20:51:20.157Z,56.80
2018-05-07T20:53:46.641Z,56.00
2018-05-07T20:56:12.999Z,57.00
2018-05-07T20:58:40.172Z,57.60
2018-05-07T21:01:06.530Z,57.50
2018-05-07T21:03:33.106Z,57.50
2018-05-07T21:06:00.170Z,57.60
2018-05-07T21:08:26.566Z,57.60
2018-05-07T21:10:54.444Z,57.40
2018-05-07T21:13:20.739Z,57.30
2018-05-07T21:15:48.027Z,57.70
2018-05-07T21:18:14.353Z,57.60
2018-05-07T21:20:40.902Z,58.00
2018-05-07T21:23:07.262Z,58.60
2018-05-07T21:25:34.515Z,58.30
2018-05-07T21:28:01.570Z,58.80
2018-05-07T21:30:27.881Z,58.80
2018-05-07T21:32:54.386Z,58.10
2018-05-07T21:35:20.967Z,57.50
2018-05-07T21:37:47.318Z,57.80
2018-05-07T21:40:13.888Z,55.40
2018-05-07T21:42:40.230Z,55.90
2018-05-07T21:45:07.056Z,57.00
2018-05-07T21:47:33.394Z,57.30
2018-05-07T21:49:59.924Z,57.60
2018-05-07T21:52:26.262Z,57.80
2018-05-07T21:54:53.153Z,58.30
2018-05-07T21:57:19.505Z,58.30
2018-05-07T21:59:46.551Z,59.20
2018-05-07T22:02:12.881Z,59.10
2018-05-07T22:04:39.951Z,59.50
2018-05-07T22:07:06.308Z,59.40
2018-05-07T22:09:32.783Z,59.60
2018-05-07T22:11:59.439Z,59.60
2018-05-07T22:14:26.430Z,60.20
2018-05-07T22:16:52.734Z,60.00
2018-05-07T22:19:19.326Z,60.40
2018-05-07T22:21:45.630Z,60.60
2018-05-07T22:24:12.318Z,60.90
2018-05-07T22:26:38.652Z,60.70
2018-05-07T22:29:05.914Z,61.10
2018-05-07T22:31:32.515Z,61.80
2018-05-07T22:33:58.897Z,61.20
2018-05-07T22:36:25.222Z,61.30
2018-05-07T22:38:52.295Z,61.80
2018-05-07T22:41:18.599Z,61.80
2018-05-07T22:43:44.946Z,62.40
2018-05-07T22:46:11.275Z,62.60
2018-05-07T22:48:38.567Z,62.70
2018-05-07T22:51:04.877Z,62.60
2018-05-07T22:53:31.211Z,63.00
2018-05-07T22:55:58.031Z,63.40
2018-05-07T22:58:24.350Z,63.80
2018-05-07T23:00:50.741Z,64.20
2018-05-07T23:03:17.027Z,63.60
2018-05-07T23:05:43.777Z,64.00
2018-05-07T23:08:10.854Z,65.00
2018-05-07T23:10:37.500Z,64.90
2018-05-07T23:13:03.835Z,65.20
2018-05-07T23:15:30.194Z,65.30
2018-05-07T23:17:56.791Z,65.50
2018-05-07T23:20:38.045Z,65.90
2018-05-07T23:23:04.446Z,66.30
2018-05-07T23:25:31.407Z,66.10
2018-05-07T23:27:57.698Z,66.20
2018-05-07T23:30:24.025Z,66.00
2018-05-07T23:32:50.520Z,66.50
2018-05-07T23:35:16.831Z,66.40
2018-05-07T23:37:43.114Z,66.60
2018-05-07T23:40:09.486Z,66.80
2018-05-07T23:42:35.773Z,66.80
2018-05-07T23:45:02.132Z,67.20
2018-05-07T23:47:28.447Z,67.40
2018-05-07T23:49:55.498Z,67.70
2018-05-07T23:52:22.752Z,68.30
2018-05-07T23:54:49.810Z,67.70
2018-05-07T23:57:16.158Z,67.60
2018-05-07T23:59:42.478Z,67.90
